createdAt,value
2023-03-05T00:00:12.637Z,2.53
2023-03-05T00:01:23.021Z,2.59
2023-03-05T00:02:24.715Z,2.59
2023-03-05T00:03:26.361Z,2.59
2023-03-05T00:04:28.129Z,2.64
2023-03-05T00:05:29.778Z,2.65
2023-03-05T00:06:32.703Z,2.66
2023-03-05T00:07:34.760Z,2.69
2023-03-05T00:08:36.788Z,2.71
2023-03-05T00:09:38.678Z,2.72
2023-03-05T00:10:40.274Z,2.71
2023-03-05T00:11:41.908Z,2.73
2023-03-05T00:12:43.556Z,2.74
2023-03-05T00:13:45.663Z,2.71
2023-03-05T00:14:47.238Z,2.75
2023-03-05T00:15:48.872Z,2.73
2023-03-05T00:16:50.681Z,2.71
2023-03-05T00:17:52.345Z,2.69
2023-03-05T00:18:55.962Z,2.70
2023-03-05T00:19:59.601Z,2.69
2023-03-05T00:21:02.150Z,2.66
2023-03-05T00:22:03.810Z,2.68
2023-03-05T00:23:05.451Z,2.65
2023-03-05T00:24:13.674Z,2.68
2023-03-05T00:25:15.478Z,2.72
2023-03-05T00:26:21.503Z,2.72
2023-03-05T00:27:23.473Z,2.63
2023-03-05T00:28:25.139Z,2.63
2023-03-05T00:29:26.742Z,2.63
2023-03-05T00:30:28.360Z,2.66
2023-03-05T00:31:32.067Z,2.68
2023-03-05T00:32:33.747Z,2.69
2023-03-05T00:33:35.412Z,2.70
2023-03-05T00:34:37.002Z,2.67
2023-03-05T00:35:44.281Z,2.67
2023-03-05T00:36:50.879Z,2.66
2023-03-05T00:37:52.874Z,2.67
2023-03-05T00:38:54.886Z,2.64
2023-03-05T00:39:57.490Z,2.65
2023-03-05T00:40:59.060Z,2.66
2023-03-05T00:42:00.662Z,2.67
2023-03-05T00:43:03.211Z,2.70
2023-03-05T00:44:05.236Z,2.70
2023-03-05T00:45:08.807Z,2.71
2023-03-05T00:46:10.436Z,2.74
2023-03-05T00:47:12.061Z,2.69
2023-03-05T00:48:13.695Z,2.71
2023-03-05T00:49:16.056Z,2.70
2023-03-05T00:50:17.853Z,2.67
2023-03-05T00:51:19.946Z,2.64
2023-03-05T00:52:21.523Z,2.62
2023-03-05T00:53:23.324Z,2.60
2023-03-05T00:54:25.956Z,2.60
2023-03-05T00:55:27.551Z,2.61
2023-03-05T00:56:29.278Z,2.58
2023-03-05T00:57:31.460Z,2.59
2023-03-05T00:58:33.276Z,2.61
2023-03-05T00:59:34.900Z,2.63
2023-03-05T01:00:37.046Z,2.65
2023-03-05T01:01:38.711Z,2.66
2023-03-05T01:02:40.319Z,2.67
2023-03-05T01:03:42.028Z,2.66
2023-03-05T01:04:43.630Z,2.67
2023-03-05T01:05:45.637Z,2.65
2023-03-05T01:06:47.337Z,2.63
2023-03-05T01:07:52.879Z,2.61
2023-03-05T01:08:54.534Z,2.59
2023-03-05T01:09:56.168Z,2.61
2023-03-05T01:10:57.728Z,2.58
2023-03-05T01:11:59.293Z,2.58
2023-03-05T01:13:00.911Z,2.56
2023-03-05T01:14:02.759Z,2.53
2023-03-05T01:15:05.365Z,2.53
2023-03-05T01:16:07.706Z,2.53
2023-03-05T01:17:09.501Z,2.55
2023-03-05T01:18:11.076Z,2.46
2023-03-05T01:19:14.688Z,2.38
2023-03-05T01:20:18.227Z,2.37
2023-03-05T01:21:19.841Z,2.29
2023-03-05T01:22:21.458Z,2.20
2023-03-05T01:23:23.704Z,2.17
2023-03-05T01:24:25.410Z,2.12
2023-03-05T01:25:28.269Z,2.06
2023-03-05T01:26:30.392Z,2.04
2023-03-05T01:27:32.403Z,2.12
2023-03-05T01:28:35.036Z,2.19
2023-03-05T01:29:36.965Z,2.27
2023-03-05T01:30:38.578Z,2.28
2023-03-05T01:31:40.307Z,2.33
2023-03-05T01:32:42.105Z,2.35
2023-03-05T01:33:43.768Z,2.38
2023-03-05T01:34:45.315Z,2.39
2023-03-05T01:35:48.331Z,2.29
2023-03-05T01:36:49.955Z,2.30
2023-03-05T01:37:52.367Z,2.35
2023-03-05T01:38:53.967Z,2.38
2023-03-05T01:39:55.561Z,2.42
2023-03-05T01:40:57.139Z,2.45
2023-03-05T01:41:58.738Z,2.45
2023-03-05T01:43:19.128Z,2.47
2023-03-05T01:44:23.367Z,2.43
2023-03-05T01:45:25.077Z,2.43
2023-03-05T01:46:28.332Z,2.42
2023-03-05T01:47:29.915Z,2.34
2023-03-05T01:48:31.547Z,2.34
2023-03-05T01:49:38.184Z,2.31
2023-03-05T01:50:40.088Z,2.24
2023-03-05T01:51:51.399Z,2.18
2023-03-05T01:52:58.857Z,2.11
2023-03-05T01:54:02.019Z,2.04
2023-03-05T01:55:13.790Z,2.07
2023-03-05T01:56:15.709Z,2.09
2023-03-05T01:57:20.003Z,2.05
2023-03-05T01:58:21.643Z,2.03
2023-03-05T01:59:24.111Z,1.94
2023-03-05T02:00:30.777Z,1.86
2023-03-05T02:01:38.479Z,1.87
2023-03-05T02:02:43.429Z,1.95
2023-03-05T02:03:46.277Z,1.98
2023-03-05T02:05:06.704Z,1.93
2023-03-05T02:06:08.487Z,1.94
2023-03-05T02:07:11.360Z,1.99
2023-03-05T02:08:16.620Z,2.04
2023-03-05T02:09:20.298Z,1.99
2023-03-05T02:10:35.312Z,2.01
2023-03-05T02:11:37.468Z,2.05
2023-03-05T02:12:39.389Z,2.08
2023-03-05T02:13:41.040Z,2.10
2023-03-05T02:14:46.653Z,1.96
2023-03-05T02:15:48.800Z,2.00
2023-03-05T02:16:50.975Z,2.04
2023-03-05T02:17:52.800Z,2.10
2023-03-05T02:18:54.411Z,2.17
2023-03-05T02:20:05.107Z,2.19
2023-03-05T02:21:11.411Z,2.22
2023-03-05T02:22:17.306Z,2.09
2023-03-05T02:23:20.778Z,1.95
2023-03-05T02:24:37.232Z,1.93
2023-03-05T02:25:38.953Z,1.91
2023-03-05T02:26:41.483Z,1.85
2023-03-05T02:27:49.407Z,1.71
2023-03-05T02:28:56.889Z,1.74
2023-03-05T02:29:58.443Z,1.79
2023-03-05T02:31:00.412Z,1.84
2023-03-05T02:32:02.633Z,1.88
2023-03-05T02:33:05.345Z,1.75
2023-03-05T02:34:07.177Z,1.76
2023-03-05T02:35:09.497Z,1.81
2023-03-05T02:36:11.161Z,1.83
2023-03-05T02:37:12.873Z,1.80
2023-03-05T02:38:17.846Z,1.85
2023-03-05T02:39:19.525Z,1.82
2023-03-05T02:40:21.458Z,1.80
2023-03-05T02:41:24.160Z,1.74
2023-03-05T02:42:25.966Z,1.79
2023-03-05T02:43:27.685Z,1.78
2023-03-05T02:44:29.374Z,1.76
2023-03-05T02:45:31.188Z,1.81
2023-03-05T02:46:33.891Z,1.83
2023-03-05T02:47:36.028Z,1.89
2023-03-05T02:48:37.788Z,1.89
2023-03-05T02:49:39.438Z,1.90
2023-03-05T02:50:41.854Z,1.90
2023-03-05T02:51:43.837Z,1.93
2023-03-05T02:52:45.576Z,1.93
2023-03-05T02:53:49.549Z,1.98
2023-03-05T02:54:52.535Z,1.99
2023-03-05T02:55:54.151Z,1.93
2023-03-05T02:56:55.714Z,1.94
2023-03-05T02:57:57.740Z,1.89
2023-03-05T02:58:59.368Z,1.81
2023-03-05T03:00:01.066Z,1.82
2023-03-05T03:01:02.800Z,1.88
2023-03-05T03:02:04.531Z,1.91
2023-03-05T03:03:06.385Z,1.97
2023-03-05T03:04:08.002Z,1.99
2023-03-05T03:05:09.831Z,1.99
2023-03-05T03:06:11.432Z,1.94
2023-03-05T03:07:14.309Z,1.92
2023-03-05T03:08:16.284Z,1.91
2023-03-05T03:09:17.874Z,1.91
2023-03-05T03:10:19.587Z,1.90
2023-03-05T03:11:21.339Z,1.88
2023-03-05T03:12:23.001Z,1.94
2023-03-05T03:13:24.644Z,1.96
2023-03-05T03:14:26.411Z,1.98
2023-03-05T03:15:28.023Z,2.00
2023-03-05T03:16:29.618Z,2.04
2023-03-05T03:17:31.194Z,2.08
2023-03-05T03:18:32.849Z,2.10
2023-03-05T03:19:35.588Z,2.07
2023-03-05T03:20:38.411Z,2.08
2023-03-05T03:21:39.947Z,2.06
2023-03-05T03:22:43.628Z,2.07
2023-03-05T03:23:45.234Z,2.07
2023-03-05T03:24:47.019Z,2.06
2023-03-05T03:25:48.550Z,2.06
2023-03-05T03:26:50.135Z,2.05
2023-03-05T03:27:51.736Z,2.03
2023-03-05T03:28:53.343Z,2.03
2023-03-05T03:29:54.937Z,2.07
2023-03-05T03:30:56.548Z,2.10
2023-03-05T03:31:58.971Z,2.07
2023-03-05T03:33:00.569Z,2.03
2023-03-05T03:34:02.319Z,2.03
2023-03-05T03:35:04.226Z,2.02
2023-03-05T03:36:06.291Z,1.99
2023-03-05T03:37:08.308Z,1.94
2023-03-05T03:38:09.902Z,1.88
2023-03-05T03:39:12.154Z,1.89
2023-03-05T03:40:13.946Z,1.87
2023-03-05T03:41:16.979Z,1.86
2023-03-05T03:42:20.493Z,1.87
2023-03-05T03:43:22.189Z,1.85
2023-03-05T03:44:24.350Z,1.83
2023-03-05T03:45:25.951Z,1.90
2023-03-05T03:46:27.577Z,1.94
2023-03-05T03:47:30.230Z,1.93
2023-03-05T03:48:31.874Z,1.87
2023-03-05T03:49:33.463Z,1.81
2023-03-05T03:50:39.012Z,1.78
2023-03-05T03:51:40.641Z,1.80
2023-03-05T03:52:42.241Z,1.78
2023-03-05T03:53:43.891Z,1.69
2023-03-05T03:54:45.492Z,1.70
2023-03-05T03:55:47.077Z,1.70
2023-03-05T03:56:48.762Z,1.68
2023-03-05T03:57:50.357Z,1.68
2023-03-05T03:58:53.583Z,1.61
2023-03-05T03:59:55.524Z,1.56
2023-03-05T04:00:57.082Z,1.61
2023-03-05T04:01:58.736Z,1.61
2023-03-05T04:03:00.615Z,1.65
2023-03-05T04:04:03.515Z,1.60
2023-03-05T04:05:06.094Z,1.53
2023-03-05T04:06:07.768Z,1.50
2023-03-05T04:07:09.765Z,1.47
2023-03-05T04:08:11.384Z,1.48
2023-03-05T04:09:12.978Z,1.50
2023-03-05T04:10:14.577Z,1.52
2023-03-05T04:11:16.204Z,1.50
2023-03-05T04:12:17.918Z,1.50
2023-03-05T04:13:19.607Z,1.43
2023-03-05T04:14:21.339Z,1.39
2023-03-05T04:15:22.980Z,1.43
2023-03-05T04:16:24.626Z,1.40
2023-03-05T04:17:26.260Z,1.43
2023-03-05T04:18:28.022Z,1.39
2023-03-05T04:19:30.469Z,1.37
2023-03-05T04:20:32.043Z,1.37
2023-03-05T04:21:33.902Z,1.40
2023-03-05T04:22:35.547Z,1.39
2023-03-05T04:23:37.964Z,1.39
2023-03-05T04:24:39.541Z,1.39
2023-03-05T04:25:41.105Z,1.37
2023-03-05T04:26:45.679Z,1.35
2023-03-05T04:27:47.270Z,1.27
2023-03-05T04:28:48.856Z,1.29
2023-03-05T04:29:50.480Z,1.27
2023-03-05T04:30:52.258Z,1.32
2023-03-05T04:31:53.863Z,1.31
2023-03-05T04:32:55.439Z,1.34
2023-03-05T04:33:56.999Z,1.38
2023-03-05T04:34:59.488Z,1.41
2023-03-05T04:36:01.155Z,1.40
2023-03-05T04:37:02.742Z,1.34
2023-03-05T04:38:04.500Z,1.31
2023-03-05T04:39:06.104Z,1.21
2023-03-05T04:40:08.276Z,1.12
2023-03-05T04:41:09.880Z,1.09
2023-03-05T04:42:11.581Z,1.05
2023-03-05T04:43:13.204Z,1.08
2023-03-05T04:44:15.044Z,1.08
2023-03-05T04:45:16.888Z,1.09
2023-03-05T04:46:18.486Z,1.10
2023-03-05T04:47:20.089Z,1.16
2023-03-05T04:48:21.666Z,1.25
2023-03-05T04:49:23.279Z,1.27
2023-03-05T04:50:24.910Z,1.25
2023-03-05T04:51:26.535Z,1.23
2023-03-05T04:52:28.156Z,1.23
2023-03-05T04:53:29.773Z,1.23
2023-03-05T04:54:31.380Z,1.20
2023-03-05T04:55:33.032Z,1.17
2023-03-05T04:56:34.667Z,1.14
2023-03-05T04:57:36.656Z,1.09
2023-03-05T04:58:38.233Z,1.06
2023-03-05T04:59:39.953Z,1.05
2023-03-05T05:00:41.589Z,1.09
2023-03-05T05:01:43.246Z,1.15
2023-03-05T05:02:47.287Z,1.18
2023-03-05T05:03:48.902Z,1.20
2023-03-05T05:04:53.827Z,1.26
2023-03-05T05:05:57.032Z,1.24
2023-03-05T05:06:59.189Z,1.22
2023-03-05T05:08:00.857Z,1.23
2023-03-05T05:09:02.655Z,1.24
2023-03-05T05:10:04.846Z,1.24
2023-03-05T05:11:08.092Z,1.23
2023-03-05T05:12:09.947Z,1.26
2023-03-05T05:13:11.806Z,1.25
2023-03-05T05:14:13.602Z,1.29
2023-03-05T05:15:15.387Z,1.29
2023-03-05T05:16:16.996Z,1.26
2023-03-05T05:17:18.648Z,1.27
2023-03-05T05:18:20.991Z,1.29
2023-03-05T05:19:22.760Z,1.34
2023-03-05T05:20:24.429Z,1.37
2023-03-05T05:21:26.149Z,1.34
2023-03-05T05:22:29.199Z,1.34
2023-03-05T05:23:30.794Z,1.34
2023-03-05T05:24:32.376Z,1.40
2023-03-05T05:25:34.032Z,1.44
2023-03-05T05:26:35.744Z,1.44
2023-03-05T05:27:39.466Z,1.46
2023-03-05T05:28:42.994Z,1.49
2023-03-05T05:29:44.784Z,1.48
2023-03-05T05:30:46.356Z,1.48
2023-03-05T05:31:47.942Z,1.45
2023-03-05T05:32:49.567Z,1.39
2023-03-05T05:33:51.174Z,1.37
2023-03-05T05:34:57.220Z,1.33
2023-03-05T05:35:58.832Z,1.27
2023-03-05T05:37:00.690Z,1.29
2023-03-05T05:38:02.405Z,1.31
2023-03-05T05:39:04.483Z,1.31
2023-03-05T05:40:06.816Z,1.31
2023-03-05T05:41:14.573Z,1.27
2023-03-05T05:42:18.255Z,1.26
2023-03-05T05:43:19.840Z,1.32
2023-03-05T05:44:21.533Z,1.34
2023-03-05T05:45:23.196Z,1.33
2023-03-05T05:46:26.105Z,1.33
2023-03-05T05:47:27.713Z,1.39
2023-03-05T05:48:30.715Z,1.43
2023-03-05T05:49:32.307Z,1.40
2023-03-05T05:50:33.891Z,1.41
2023-03-05T05:51:35.490Z,1.38
2023-03-05T05:52:37.136Z,1.39
2023-03-05T05:53:38.829Z,1.35
2023-03-05T05:54:40.489Z,1.33
2023-03-05T05:55:42.066Z,1.30
2023-03-05T05:56:43.644Z,1.32
2023-03-05T05:57:45.285Z,1.35
2023-03-05T05:58:48.087Z,1.28
2023-03-05T05:59:49.696Z,1.25
2023-03-05T06:00:51.296Z,1.25
2023-03-05T06:01:52.913Z,1.26
2023-03-05T06:02:54.580Z,1.22
2023-03-05T06:03:56.916Z,1.26
2023-03-05T06:05:00.007Z,1.32
2023-03-05T06:06:01.836Z,1.41
2023-03-05T06:07:03.947Z,1.47
2023-03-05T06:08:05.539Z,1.48
2023-03-05T06:09:07.183Z,1.50
2023-03-05T06:10:10.258Z,1.55
2023-03-05T06:11:12.218Z,1.54
2023-03-05T06:12:13.765Z,1.58
2023-03-05T06:13:15.367Z,1.58
2023-03-05T06:14:17.171Z,1.60
2023-03-05T06:15:18.902Z,1.63
2023-03-05T06:16:22.898Z,1.66
2023-03-05T06:17:30.328Z,1.62
2023-03-05T06:18:34.093Z,1.55
2023-03-05T06:19:35.718Z,1.46
2023-03-05T06:20:37.293Z,1.42
2023-03-05T06:21:39.787Z,1.41
2023-03-05T06:22:41.463Z,1.39
2023-03-05T06:23:43.919Z,1.42
2023-03-05T06:24:45.501Z,1.39
2023-03-05T06:25:47.087Z,1.42
2023-03-05T06:26:48.742Z,1.44
2023-03-05T06:27:50.340Z,1.39
2023-03-05T06:28:52.681Z,1.38
2023-03-05T06:29:54.882Z,1.38
2023-03-05T06:31:01.685Z,1.28
2023-03-05T06:32:04.376Z,1.23
2023-03-05T06:33:05.951Z,1.19
2023-03-05T06:34:07.626Z,1.21
2023-03-05T06:35:09.380Z,1.15
2023-03-05T06:36:14.271Z,1.18
2023-03-05T06:37:15.854Z,1.22
2023-03-05T06:38:17.519Z,1.23
2023-03-05T06:39:19.073Z,1.23
2023-03-05T06:40:20.645Z,1.25
2023-03-05T06:41:26.023Z,1.28
2023-03-05T06:42:27.606Z,1.30
2023-03-05T06:43:29.164Z,1.32
2023-03-05T06:44:30.757Z,1.39
2023-03-05T06:45:32.405Z,1.43
2023-03-05T06:46:36.098Z,1.46
2023-03-05T06:47:37.695Z,1.43
2023-03-05T06:48:39.383Z,1.40
2023-03-05T06:49:41.000Z,1.39
2023-03-05T06:50:42.731Z,1.44
2023-03-05T06:51:44.333Z,1.51
2023-03-05T06:52:49.386Z,1.51
2023-03-05T06:53:52.060Z,1.54
2023-03-05T06:54:53.634Z,1.55
2023-03-05T06:55:55.539Z,1.56
2023-03-05T06:56:57.448Z,1.55
2023-03-05T06:57:59.056Z,1.56
2023-03-05T06:59:00.703Z,1.53
2023-03-05T07:00:03.841Z,1.56
2023-03-05T07:01:06.927Z,1.61
2023-03-05T07:02:11.361Z,1.63
2023-03-05T07:03:13.340Z,1.65
2023-03-05T07:04:15.739Z,1.64
2023-03-05T07:05:17.310Z,1.67
2023-03-05T07:06:20.713Z,1.64
2023-03-05T07:07:22.329Z,1.52
2023-03-05T07:08:24.005Z,1.47
2023-03-05T07:09:25.598Z,1.49
2023-03-05T07:10:27.194Z,1.54
2023-03-05T07:11:29.527Z,1.58
2023-03-05T07:12:31.273Z,1.64
2023-03-05T07:13:32.912Z,1.61
2023-03-05T07:14:34.541Z,1.61
2023-03-05T07:15:39.372Z,1.64
2023-03-05T07:16:41.007Z,1.56
2023-03-05T07:17:42.614Z,1.52
2023-03-05T07:18:45.018Z,1.56
2023-03-05T07:19:46.658Z,1.53
2023-03-05T07:20:48.243Z,1.57
2023-03-05T07:21:49.864Z,1.56
2023-03-05T07:22:51.491Z,1.54
2023-03-05T07:23:58.231Z,1.57
2023-03-05T07:24:59.821Z,1.63
2023-03-05T07:26:02.935Z,1.62
2023-03-05T07:27:04.546Z,1.62
2023-03-05T07:28:06.648Z,1.58
2023-03-05T07:29:08.375Z,1.66
2023-03-05T07:30:10.672Z,1.70
2023-03-05T07:31:14.513Z,1.65
2023-03-05T07:32:16.129Z,1.68
2023-03-05T07:33:17.793Z,1.74
2023-03-05T07:34:19.729Z,1.71
2023-03-05T07:35:21.379Z,1.61
2023-03-05T07:36:23.834Z,1.60
2023-03-05T07:37:25.418Z,1.62
2023-03-05T07:38:27.993Z,1.58
2023-03-05T07:39:29.575Z,1.53
2023-03-05T07:40:31.197Z,1.50
2023-03-05T07:41:32.879Z,1.43
2023-03-05T07:42:34.697Z,1.37
2023-03-05T07:43:49.121Z,1.35
2023-03-05T07:44:50.826Z,1.38
2023-03-05T07:45:52.707Z,1.44
2023-03-05T07:46:54.401Z,1.50
2023-03-05T07:47:55.999Z,1.53
2023-03-05T07:48:58.024Z,1.56
2023-03-05T07:49:59.645Z,1.55
2023-03-05T07:51:10.994Z,1.57
2023-03-05T07:52:12.551Z,1.58
2023-03-05T07:53:14.763Z,1.62
2023-03-05T07:54:16.430Z,1.67
2023-03-05T07:55:18.037Z,1.62
2023-03-05T07:56:29.029Z,1.57
2023-03-05T07:57:30.710Z,1.62
2023-03-05T07:58:32.788Z,1.61
2023-03-05T07:59:35.050Z,1.60
2023-03-05T08:00:36.681Z,1.62
2023-03-05T08:01:38.592Z,1.63
2023-03-05T08:02:40.283Z,1.64
2023-03-05T08:03:43.426Z,1.65
2023-03-05T08:04:45.073Z,1.63
2023-03-05T08:05:46.656Z,1.62
2023-03-05T08:06:48.358Z,1.62
2023-03-05T08:07:49.959Z,1.61
2023-03-05T08:08:51.568Z,1.61
2023-03-05T08:09:53.268Z,1.64
2023-03-05T08:10:54.921Z,1.66
2023-03-05T08:11:56.720Z,1.62
2023-03-05T08:12:58.322Z,1.64
2023-03-05T08:13:59.999Z,1.64
2023-03-05T08:15:01.625Z,1.67
2023-03-05T08:16:08.167Z,1.67
2023-03-05T08:17:09.758Z,1.67
2023-03-05T08:18:11.437Z,1.71
2023-03-05T08:19:13.002Z,1.72
2023-03-05T08:20:14.627Z,1.72
2023-03-05T08:21:21.565Z,1.73
2023-03-05T08:22:23.197Z,1.78
2023-03-05T08:23:25.000Z,1.76
2023-03-05T08:24:26.811Z,1.74
2023-03-05T08:25:28.465Z,1.81
2023-03-05T08:26:31.506Z,1.82
2023-03-05T08:27:33.159Z,1.74
2023-03-05T08:28:34.757Z,1.76
2023-03-05T08:29:36.337Z,1.77
2023-03-05T08:30:40.577Z,1.82
2023-03-05T08:31:46.056Z,1.87
2023-03-05T08:32:49.769Z,1.86
2023-03-05T08:33:53.489Z,1.86
2023-03-05T08:34:58.148Z,1.85
2023-03-05T08:35:59.769Z,1.90
2023-03-05T08:37:01.452Z,1.90
2023-03-05T08:38:03.163Z,1.92
2023-03-05T08:39:04.959Z,1.92
2023-03-05T08:40:07.153Z,1.95
2023-03-05T08:41:08.952Z,1.96
2023-03-05T08:42:10.549Z,1.95
2023-03-05T08:43:12.122Z,1.96
2023-03-05T08:44:13.737Z,1.95
2023-03-05T08:45:15.362Z,1.91
2023-03-05T08:46:17.055Z,1.93
2023-03-05T08:47:19.241Z,1.96
2023-03-05T08:48:20.927Z,1.95
2023-03-05T08:49:22.695Z,1.92
2023-03-05T08:50:24.584Z,1.95
2023-03-05T08:51:27.152Z,1.98
2023-03-05T08:52:28.778Z,1.96
2023-03-05T08:53:30.392Z,1.94
2023-03-05T08:54:32.994Z,1.93
2023-03-05T08:55:34.619Z,1.92
2023-03-05T08:56:36.972Z,1.93
2023-03-05T08:57:38.559Z,1.94
2023-03-05T08:58:40.223Z,1.89
2023-03-05T08:59:41.844Z,1.90
2023-03-05T09:00:43.416Z,1.88
2023-03-05T09:01:45.020Z,1.88
2023-03-05T09:02:46.621Z,1.91
2023-03-05T09:03:48.202Z,1.96
2023-03-05T09:04:49.812Z,2.04
2023-03-05T09:05:51.518Z,2.03
2023-03-05T09:06:53.093Z,2.06
2023-03-05T09:07:54.681Z,2.11
2023-03-05T09:08:56.262Z,2.16
2023-03-05T09:09:57.876Z,2.12
2023-03-05T09:11:02.745Z,2.15
2023-03-05T09:12:04.507Z,2.15
2023-03-05T09:13:06.109Z,2.16
2023-03-05T09:14:08.130Z,2.19
2023-03-05T09:15:11.037Z,2.22
2023-03-05T09:16:15.813Z,2.22
2023-03-05T09:17:17.453Z,2.24
2023-03-05T09:18:19.336Z,2.27
2023-03-05T09:19:20.975Z,2.30
2023-03-05T09:20:22.712Z,2.28
2023-03-05T09:21:24.288Z,2.29
2023-03-05T09:22:26.150Z,2.35
2023-03-05T09:23:27.768Z,2.36
2023-03-05T09:24:29.378Z,2.37
2023-03-05T09:25:30.964Z,2.33
2023-03-05T09:26:34.780Z,2.35
2023-03-05T09:27:37.094Z,2.35
2023-03-05T09:28:39.683Z,2.38
2023-03-05T09:29:43.081Z,2.42
2023-03-05T09:30:44.876Z,2.49
2023-03-05T09:31:51.069Z,2.52
2023-03-05T09:32:52.762Z,2.59
2023-03-05T09:33:54.408Z,2.58
2023-03-05T09:34:56.064Z,2.59
2023-03-05T09:35:57.938Z,2.57
2023-03-05T09:36:59.528Z,2.55
2023-03-05T09:38:01.199Z,2.60
2023-03-05T09:39:03.625Z,2.66
2023-03-05T09:40:05.765Z,2.73
2023-03-05T09:41:17.086Z,2.70
2023-03-05T09:42:43.405Z,2.76
2023-03-05T09:43:57.249Z,2.83
2023-03-05T09:45:19.764Z,2.83
2023-03-05T09:46:33.127Z,2.83
2023-03-05T09:47:37.410Z,2.83
2023-03-05T09:48:50.325Z,2.80
2023-03-05T09:50:18.727Z,2.76
2023-03-05T09:51:27.918Z,2.75
2023-03-05T09:53:07.990Z,2.79
2023-03-05T09:54:23.280Z,2.90
2023-03-05T09:55:32.749Z,2.94
2023-03-05T09:56:41.642Z,3.00
2023-03-05T09:57:51.246Z,2.99
2023-03-05T09:58:56.302Z,2.99
2023-03-05T10:00:01.028Z,2.97
2023-03-05T10:01:23.220Z,3.04
2023-03-05T10:02:30.332Z,3.05
2023-03-05T10:03:44.723Z,3.07
2023-03-05T10:04:54.971Z,3.05
2023-03-05T10:06:05.879Z,3.09
2023-03-05T10:07:27.421Z,3.09
2023-03-05T10:08:42.038Z,2.98
2023-03-05T10:10:18.296Z,3.05
2023-03-05T10:11:34.073Z,3.08
2023-03-05T10:12:48.375Z,3.09
2023-03-05T10:13:49.976Z,3.15
2023-03-05T10:14:52.668Z,3.08
2023-03-05T10:16:04.726Z,3.11
2023-03-05T10:17:24.422Z,3.02
2023-03-05T10:19:07.409Z,3.05
2023-03-05T10:20:14.817Z,3.02
2023-03-05T10:21:43.550Z,2.97
2023-03-05T10:23:11.065Z,3.00
2023-03-05T10:24:41.414Z,3.06
2023-03-05T10:25:58.133Z,3.05
2023-03-05T10:27:02.478Z,3.11
2023-03-05T10:28:09.502Z,3.11
2023-03-05T10:29:29.082Z,2.96
2023-03-05T10:31:08.920Z,2.86
2023-03-05T10:32:58.082Z,2.88
2023-03-05T10:34:24.824Z,2.89
2023-03-05T10:35:44.957Z,2.90
2023-03-05T10:37:00.383Z,2.87
2023-03-05T10:38:13.673Z,2.78
2023-03-05T10:39:43.175Z,2.73
2023-03-05T10:40:52.817Z,2.76
2023-03-05T10:42:03.436Z,2.73
2023-03-05T10:43:08.650Z,2.71
2023-03-05T10:44:20.581Z,2.70
2023-03-05T10:45:29.166Z,2.72
2023-03-05T10:46:36.954Z,2.67
2023-03-05T10:47:49.001Z,2.61
2023-03-05T10:48:55.383Z,2.56
2023-03-05T10:49:58.938Z,2.62
2023-03-05T10:51:15.094Z,2.65
2023-03-05T10:52:38.024Z,2.72
2023-03-05T10:53:53.694Z,2.73
2023-03-05T10:54:55.245Z,2.73
2023-03-05T10:56:01.834Z,2.60
2023-03-05T10:57:12.133Z,2.61
2023-03-05T10:58:16.488Z,2.63
2023-03-05T10:59:18.042Z,2.59
2023-03-05T11:00:23.140Z,2.56
2023-03-05T11:01:27.170Z,2.51
2023-03-05T11:02:28.843Z,2.55
2023-03-05T11:04:03.997Z,2.61
2023-03-05T11:05:14.933Z,2.56
2023-03-05T11:06:33.740Z,2.48
2023-03-05T11:07:37.876Z,2.49
2023-03-05T11:08:40.242Z,2.48
2023-03-05T11:09:43.367Z,2.48
2023-03-05T11:10:45.535Z,2.52
2023-03-05T11:12:02.238Z,2.53
2023-03-05T11:13:27.115Z,2.51
2023-03-05T11:14:30.044Z,2.54
2023-03-05T11:15:32.694Z,2.49
2023-03-05T11:16:47.040Z,2.51
2023-03-05T11:18:20.117Z,2.55
2023-03-05T11:19:32.721Z,2.51
2023-03-05T11:20:36.503Z,2.57
2023-03-05T11:21:38.082Z,2.64
2023-03-05T11:22:39.668Z,2.70
2023-03-05T11:23:41.336Z,2.66
2023-03-05T11:24:44.636Z,2.66
2023-03-05T11:26:02.855Z,2.74
2023-03-05T11:27:42.422Z,2.77
2023-03-05T11:28:52.836Z,2.76
2023-03-05T11:29:54.895Z,2.83
2023-03-05T11:31:17.047Z,2.94
2023-03-05T11:32:22.909Z,2.95
2023-03-05T11:33:24.668Z,2.92
2023-03-05T11:34:32.237Z,2.94
2023-03-05T11:35:36.840Z,2.97
2023-03-05T11:36:40.786Z,2.95
2023-03-05T11:37:42.456Z,2.99
2023-03-05T11:38:47.131Z,3.08
2023-03-05T11:39:49.100Z,3.17
2023-03-05T11:40:53.132Z,3.31
2023-03-05T11:42:06.610Z,3.36
2023-03-05T11:43:16.219Z,3.42
2023-03-05T11:44:26.890Z,3.29
2023-03-05T11:45:31.031Z,3.26
2023-03-05T11:46:40.827Z,3.29
2023-03-05T11:47:49.407Z,3.32
2023-03-05T11:48:53.746Z,3.30
2023-03-05T11:50:05.535Z,3.32
2023-03-05T11:51:36.269Z,3.33
2023-03-05T11:53:25.233Z,3.38
2023-03-05T11:54:35.023Z,3.48
2023-03-05T11:55:42.640Z,3.62
2023-03-05T11:56:47.144Z,3.69
2023-03-05T11:58:22.374Z,3.73
2023-03-05T11:59:33.731Z,3.79
2023-03-05T12:00:37.643Z,3.77
2023-03-05T12:01:59.911Z,3.79
2023-03-05T12:03:07.628Z,3.80
2023-03-05T12:04:09.636Z,3.85
2023-03-05T12:05:16.070Z,3.90
2023-03-05T12:06:20.429Z,3.89
2023-03-05T12:07:36.542Z,3.80
2023-03-05T12:08:44.177Z,3.90
2023-03-05T12:09:53.150Z,3.91
2023-03-05T12:10:56.102Z,3.91
2023-03-05T12:12:09.503Z,3.85
2023-03-05T12:13:35.458Z,3.86
2023-03-05T12:14:45.508Z,3.80
2023-03-05T12:16:19.276Z,3.70
2023-03-05T12:17:42.357Z,3.58
2023-03-05T12:18:52.275Z,3.61
2023-03-05T12:19:56.459Z,3.61
2023-03-05T12:21:17.399Z,3.50
2023-03-05T12:22:22.600Z,3.45
2023-03-05T12:23:24.269Z,3.37
2023-03-05T12:24:28.184Z,3.36
2023-03-05T12:25:44.665Z,3.43
2023-03-05T12:26:54.947Z,3.31
2023-03-05T12:27:56.600Z,3.28
2023-03-05T12:28:58.441Z,3.23
2023-03-05T12:30:00.251Z,3.16
2023-03-05T12:31:03.114Z,3.25
2023-03-05T12:32:26.238Z,3.27
2023-03-05T12:33:34.022Z,3.25
2023-03-05T12:34:41.845Z,3.26
2023-03-05T12:35:44.053Z,3.13
2023-03-05T12:36:46.441Z,3.08
2023-03-05T12:37:51.117Z,3.12
2023-03-05T12:38:57.525Z,3.08
2023-03-05T12:40:06.425Z,3.07
2023-03-05T12:41:33.165Z,2.93
2023-03-05T12:42:34.707Z,2.91
2023-03-05T12:43:36.285Z,2.95
2023-03-05T12:44:37.935Z,3.00
2023-03-05T12:45:41.442Z,2.96
2023-03-05T12:46:46.233Z,2.94
2023-03-05T12:47:54.860Z,2.90
2023-03-05T12:48:56.496Z,2.88
2023-03-05T12:49:58.678Z,2.85
2023-03-05T12:51:00.291Z,2.83
2023-03-05T12:52:04.006Z,2.77
2023-03-05T12:53:18.313Z,2.78
2023-03-05T12:54:29.007Z,2.86
2023-03-05T12:55:49.651Z,2.95
2023-03-05T12:56:55.783Z,3.04
2023-03-05T12:58:09.560Z,3.05
2023-03-05T12:59:11.246Z,3.05
2023-03-05T13:00:25.172Z,3.08
2023-03-05T13:01:45.432Z,2.98
2023-03-05T13:02:50.400Z,3.02
2023-03-05T13:03:58.339Z,3.13
2023-03-05T13:05:04.057Z,3.16
2023-03-05T13:06:06.936Z,3.20
2023-03-05T13:07:16.708Z,3.18
2023-03-05T13:08:24.439Z,3.13
2023-03-05T13:09:28.652Z,3.13
2023-03-05T13:10:30.311Z,3.19
2023-03-05T13:11:36.403Z,3.26
2023-03-05T13:12:39.101Z,3.25
2023-03-05T13:13:46.118Z,3.30
2023-03-05T13:14:58.990Z,3.34
2023-03-05T13:16:01.302Z,3.36
2023-03-05T13:17:23.398Z,3.38
2023-03-05T13:18:29.208Z,3.44
2023-03-05T13:19:31.553Z,3.41
2023-03-05T13:20:38.920Z,3.42
2023-03-05T13:21:40.913Z,3.38
2023-03-05T13:22:42.623Z,3.35
2023-03-05T13:23:52.353Z,3.32
2023-03-05T13:25:14.592Z,3.37
2023-03-05T13:26:19.022Z,3.45
2023-03-05T13:27:30.266Z,3.48
2023-03-05T13:28:32.868Z,3.54
2023-03-05T13:29:34.555Z,3.56
2023-03-05T13:30:36.328Z,3.59
2023-03-05T13:32:24.250Z,3.59
2023-03-05T13:33:37.427Z,3.63
2023-03-05T13:34:47.538Z,3.60
2023-03-05T13:35:49.640Z,3.55
2023-03-05T13:36:59.070Z,3.47
2023-03-05T13:38:01.195Z,3.44
2023-03-05T13:39:02.953Z,3.37
2023-03-05T13:40:16.949Z,3.39
2023-03-05T13:41:25.728Z,3.46
2023-03-05T13:42:29.874Z,3.46
2023-03-05T13:43:31.804Z,3.47
2023-03-05T13:44:34.247Z,3.49
2023-03-05T13:45:35.961Z,3.53
2023-03-05T13:46:39.607Z,3.64
2023-03-05T13:47:52.312Z,3.69
2023-03-05T13:48:54.444Z,3.74
2023-03-05T13:50:21.719Z,3.74
2023-03-05T13:51:23.582Z,3.80
2023-03-05T13:52:28.258Z,3.81
2023-03-05T13:53:31.635Z,3.73
2023-03-05T13:54:33.761Z,3.75
2023-03-05T13:55:35.440Z,3.70
2023-03-05T13:56:37.152Z,3.71
2023-03-05T13:57:42.464Z,3.67
2023-03-05T13:58:47.203Z,3.66
2023-03-05T13:59:52.926Z,3.62
2023-03-05T14:01:15.906Z,3.61
2023-03-05T14:02:19.718Z,3.50
2023-03-05T14:03:24.892Z,3.54
2023-03-05T14:04:35.755Z,3.45
2023-03-05T14:05:42.740Z,3.41
2023-03-05T14:06:59.016Z,3.40
2023-03-05T14:08:01.287Z,3.43
2023-03-05T14:09:20.106Z,3.38
2023-03-05T14:10:37.730Z,3.30
2023-03-05T14:11:39.580Z,3.24
2023-03-05T14:12:42.769Z,3.25
2023-03-05T14:13:45.953Z,3.27
2023-03-05T14:14:51.022Z,3.21
2023-03-05T14:16:11.393Z,3.09
2023-03-05T14:17:27.737Z,3.05
2023-03-05T14:18:29.386Z,2.97
2023-03-05T14:19:37.549Z,2.96
2023-03-05T14:21:09.764Z,2.95
2023-03-05T14:22:38.339Z,2.92
2023-03-05T14:23:48.078Z,2.83
2023-03-05T14:24:52.913Z,2.76